Time;durP1;ratioP1;P1;durP2;ratioP2;P2;SDS_P1;SDS_P2;PMS_P1;PMS_P2;Temp;Humidity;BMP_temperature;BMP_pressure;BME280_temperature;BME280_humidity;BME280_pressure;Samples;Min_cycle;Max_cycle;Signal;HPM_P1;HPM_P2
2022/06/13 00:09:11;;;;;;;8.40;6.20;;;;;;;16.66;63.50;99388.83;447876;1270;142438;-58
2022/06/13 00:19:32;;;;;;;7.80;6.90;;;;;;;16.48;64.26;99389.42;445978;1269;141905;-59
2022/06/13 00:29:54;;;;;;;8.30;6.20;;;;;;;16.34;64.92;99397.74;440545;1270;142011;-58
2022/06/13 00:40:16;;;;;;;6.80;6.20;;;;;;;16.18;65.39;99400.54;447765;1269;142916;-59
2022/06/13 00:50:44;;;;;;;7.00;6.30;;;;;;;15.98;65.67;99390.22;442775;1270;142763;-58
2022/06/13 01:01:06;;;;;;;6.60;6.00;;;;;;;15.83;66.02;99398.89;447740;1269;142475;-58
2022/06/13 01:11:27;;;;;;;7.10;6.40;;;;;;;15.72;66.57;99388.37;446208;1270;146436;-58
2022/06/13 01:22:00;;;;;;;8.20;7.50;;;;;;;15.57;66.83;99391.42;443070;1270;145711;-58
2022/06/13 01:32:32;;;;;;;9.30;8.00;;;;;;;15.70;67.32;99367.92;441088;1261;145554;-62
2022/06/13 01:43:05;;;;;;;12.10;10.30;;;;;;;15.95;67.89;99350.19;447086;1273;143032;-61
2022/06/13 01:53:40;;;;;;;8.80;7.90;;;;;;;16.10;69.82;99363.11;446404;1273;143304;-61
2022/06/13 02:04:07;;;;;;;9.50;8.50;;;;;;;16.01;70.74;99362.37;447154;1273;144071;-62
2022/06/13 02:14:35;;;;;;;9.30;7.60;;;;;;;15.97;71.37;99369.95;441178;1273;144153;-61
2022/06/13 02:24:59;;;;;;;9.60;8.60;;;;;;;15.97;71.65;99337.11;440466;1273;143655;-61
2022/06/13 02:35:27;;;;;;;10.40;9.60;;;;;;;16.02;72.43;99370.96;433271;1273;142878;-59
2022/06/13 02:45:53;;;;;;;8.20;7.30;;;;;;;15.99;72.87;99358.69;430506;1274;153681;-59
2022/06/13 02:56:26;;;;;;;8.90;8.00;;;;;;;15.93;73.08;99353.16;429952;1272;143607;-59
2022/06/13 03:07:00;;;;;;;8.10;7.40;;;;;;;15.89;73.64;99353.36;430899;1273;147625;-62
2022/06/13 03:17:37;;;;;;;7.90;7.20;;;;;;;15.93;74.16;99349.80;431235;1273;192194;-60
2022/06/13 03:28:08;;;;;;;8.60;6.80;;;;;;;15.95;74.66;99350.22;430773;1273;142066;-61
2022/06/13 03:38:34;;;;;;;7.80;7.10;;;;;;;15.99;75.14;99345.80;430284;1273;143350;-59
2022/06/13 03:49:01;;;;;;;8.10;7.30;;;;;;;16.01;75.30;99330.85;431306;1273;143832;-61
2022/06/13 03:59:29;;;;;;;7.50;6.80;;;;;;;16.04;75.29;99311.58;431829;1273;141894;-60
2022/06/13 04:09:54;;;;;;;7.70;7.00;;;;;;;16.19;75.45;99304.09;430246;1273;142679;-62
2022/06/13 04:20:27;;;;;;;7.10;6.40;;;;;;;16.43;74.76;99287.22;429933;1273;143330;-61
2022/06/13 04:30:50;;;;;;;7.70;6.70;;;;;;;17.19;74.16;99270.13;430605;1273;147067;-61
2022/06/13 04:41:14;;;;;;;5.80;5.40;;;;;;;19.01;71.65;99268.04;430000;1273;142883;-61
2022/06/13 04:51:42;;;;;;;4.10;3.70;;;;;;;19.74;69.09;99270.45;430103;1273;141779;-62
2022/06/13 05:02:03;;;;;;;;;;;;;;;19.61;67.30;99258.51;429908;1272;143148;-61
2022/06/13 05:12:30;;;;;;;7.00;3.60;;;;;;;20.24;66.21;99229.02;430717;1273;131915;-61
2022/06/13 05:23:16;;;;;;;2.90;2.70;;;;;;;20.86;64.46;99222.73;429752;1273;145731;-59
2022/06/13 05:33:40;;;;;;;6.00;2.90;;;;;;;21.75;63.04;99239.80;430502;1273;147914;-61
2022/06/13 05:44:02;;;;;;;2.30;2.10;;;;;;;21.55;62.12;99241.94;431407;1273;144767;-62
2022/06/13 05:54:24;;;;;;;3.20;2.10;;;;;;;21.23;62.24;99246.85;431079;1273;141567;-61
2022/06/13 06:04:46;;;;;;;2.70;2.10;;;;;;;21.61;61.23;99240.90;429937;1273;146243;-61
2022/06/13 06:15:09;;;;;;;2.80;1.90;;;;;;;21.83;60.08;99254.10;431519;1273;142942;-62
2022/06/13 06:25:31;;;;;;;4.70;1.70;;;;;;;21.16;59.94;99240.52;430779;1273;141568;-61
2022/06/13 06:35:53;;;;;;;2.70;1.90;;;;;;;20.69;60.39;99237.59;429959;1273;153587;-62
2022/06/13 06:46:15;;;;;;;4.20;1.90;;;;;;;20.34;60.89;99248.04;430845;1273;144208;-61
2022/06/13 07:07:18;;;;;;;3.00;2.60;;;;;;;19.41;62.89;99252.13;430243;1273;142189;-61
2022/06/13 07:17:40;;;;;;;7.50;2.60;;;;;;;19.24;63.80;99262.87;430323;1273;146021;-60
2022/06/13 07:28:01;;;;;;;1.70;1.60;;;;;;;19.11;63.68;99252.07;437969;1272;142815;-61
2022/06/13 07:38:23;;;;;;;2.70;2.30;;;;;;;18.74;63.06;99232.55;434890;1273;142887;-60
2022/06/13 07:48:48;;;;;;;3.20;2.40;;;;;;;18.55;63.68;99229.29;430479;1273;142120;-61
2022/06/13 07:59:15;;;;;;;2.80;1.80;;;;;;;18.50;63.56;99205.51;430898;1273;142499;-61
2022/06/13 08:09:37;;;;;;;2.20;1.80;;;;;;;18.90;63.36;99201.23;431513;1273;142855;-61
2022/06/13 08:19:58;;;;;;;3.70;2.20;;;;;;;19.21;62.71;99196.92;430743;1273;142056;-62
2022/06/13 08:30:21;;;;;;;3.70;2.10;;;;;;;19.70;61.79;99203.61;431428;1273;463631;-60
2022/06/13 08:40:48;;;;;;;5.30;2.00;;;;;;;20.61;60.46;99201.88;431667;1272;146403;-61
2022/06/13 08:51:11;;;;;;;13.20;2.80;;;;;;;21.96;58.84;99214.56;432899;1273;141322;-61
2022/06/13 09:01:39;;;;;;;4.20;1.40;;;;;;;23.19;56.71;99214.95;430856;1273;141829;-60
2022/06/13 09:12:02;;;;;;;;;;;;;;;23.88;54.91;99218.89;432443;1273;142331;-61
2022/06/13 09:22:36;;;;;;;3.80;1.90;;;;;;;23.56;54.20;99230.80;434080;1271;129145;-61
2022/06/13 09:33:05;;;;;;;18.50;2.60;;;;;;;22.73;54.77;99238.28;436281;1272;142354;-62
2022/06/13 09:43:36;;;;;;;5.10;2.80;;;;;;;22.49;55.67;99229.06;439770;1273;146308;-62
2022/06/13 09:54:05;;;;;;;3.00;2.50;;;;;;;22.32;55.92;99224.09;443217;1271;141252;-62
2022/06/13 10:04:39;;;;;;;3.60;3.10;;;;;;;21.70;56.72;99227.09;440738;1272;142404;-61
2022/06/13 10:15:17;;;;;;;23.30;5.40;;;;;;;20.99;58.55;99221.67;447246;1272;187414;-62
2022/06/13 10:25:52;;;;;;;8.30;5.20;;;;;;;20.56;59.96;99230.27;447231;1273;143464;-62
2022/06/13 10:36:21;;;;;;;7.80;6.40;;;;;;;20.32;60.97;99229.21;447166;1273;144541;-62
2022/06/13 10:46:43;;;;;;;6.30;5.80;;;;;;;20.79;60.94;99225.64;447192;1271;143739;-62
2022/06/13 10:57:09;;;;;;;7.90;7.20;;;;;;;21.09;60.64;99212.46;447248;1272;143274;-61
2022/06/13 11:07:35;;;;;;;4.40;3.40;;;;;;;20.78;60.44;99225.23;443880;1271;144083;-61
2022/06/13 11:28:42;;;;;;;5.40;4.30;;;;;;;18.11;59.97;99213.88;443081;1272;190119;-62
2022/06/13 11:39:05;;;;;;;7.00;5.70;;;;;;;17.30;62.90;99213.41;447207;1271;142800;-61
2022/06/13 11:49:34;;;;;;;6.30;5.30;;;;;;;16.70;65.25;99228.17;447245;1272;144254;-62
2022/06/13 11:59:59;;;;;;;7.60;4.30;;;;;;;15.99;67.69;99279.58;438728;1273;141929;-60
2022/06/13 12:10:25;;;;;;;5.00;4.10;;;;;;;15.50;69.67;99335.61;435212;1273;141854;-61
2022/06/13 12:20:54;;;;;;;3.00;2.70;;;;;;;15.23;70.64;99345.08;446517;1272;142922;-61
2022/06/13 12:31:23;;;;;;;5.00;3.80;;;;;;;15.13;70.90;99342.16;442603;1273;143874;-61
2022/06/13 12:41:53;;;;;;;2.70;2.10;;;;;;;15.15;71.14;99349.09;432427;1273;142643;-61
2022/06/13 12:52:28;;;;;;;2.70;2.50;;;;;;;14.93;71.31;99364.04;434312;1273;141822;-61
2022/06/13 13:03:25;;;;;;;3.30;2.80;;;;;;;14.70;72.05;99358.20;447262;1272;143098;-61
2022/06/13 13:13:52;;;;;;;2.90;2.10;;;;;;;14.62;72.39;99344.44;445981;1272;143157;-60
2022/06/13 13:24:27;;;;;;;2.40;2.20;;;;;;;14.71;72.18;99323.70;447302;1273;142427;-61
2022/06/13 13:35:03;;;;;;;2.90;2.00;;;;;;;14.89;71.90;99311.82;446541;1272;144570;-60
2022/06/13 13:45:35;;;;;;;3.00;2.30;;;;;;;14.99;71.47;99295.27;442384;1273;143863;-61
2022/06/13 13:56:05;;;;;;;2.50;2.30;;;;;;;15.20;71.02;99280.74;446381;1272;145312;-61
2022/06/13 14:06:33;;;;;;;3.30;3.00;;;;;;;15.44;71.12;99267.34;447281;1273;142305;-61
2022/06/13 14:16:56;;;;;;;5.20;4.20;;;;;;;15.69;71.43;99287.57;446514;1272;142970;-62
2022/06/13 14:27:18;;;;;;;3.80;2.70;;;;;;;15.92;71.90;99304.42;435650;1272;147768;-60
2022/06/13 14:38:12;;;;;;;3.10;2.50;;;;;;;16.01;71.70;99304.48;431027;1273;143312;-60
2022/06/13 14:48:42;;;;;;;3.80;2.80;;;;;;;16.31;71.71;99282.86;429887;1273;143048;-60
2022/06/13 14:59:05;;;;;;;4.20;2.80;;;;;;;16.64;71.52;99274.66;428973;1273;142957;-60
2022/06/13 15:09:35;;;;;;;4.60;3.20;;;;;;;17.07;70.97;99261.28;429473;1273;142647;-60
2022/06/13 15:19:59;;;;;;;9.10;5.20;;;;;;;17.77;70.87;99250.36;429641;1273;142373;-61
2022/06/13 15:30:31;;;;;;;5.80;5.30;;;;;;;18.94;69.29;99257.75;430392;1273;141652;-60
2022/06/13 15:40:56;;;;;;;7.60;5.70;;;;;;;19.64;67.65;99259.07;429351;1273;142091;-60
2022/06/13 15:51:20;;;;;;;7.30;5.80;;;;;;;19.65;66.92;99257.27;430961;1273;142425;-63
2022/06/13 16:01:52;;;;;;;6.00;4.70;;;;;;;19.10;66.81;99264.42;429142;1273;145210;-59
2022/06/13 16:12:20;;;;;;;5.60;5.10;;;;;;;19.11;67.15;99276.61;430068;1273;142122;-61
2022/06/13 16:22:43;;;;;;;11.00;6.00;;;;;;;19.02;67.15;99297.88;431962;1273;142048;-61
2022/06/13 16:33:12;;;;;;;5.20;3.20;;;;;;;18.38;65.93;99306.73;434731;1273;143271;-60
2022/06/13 16:43:34;;;;;;;4.80;3.20;;;;;;;17.92;65.76;99313.51;431539;1273;141676;-61
2022/06/13 16:53:59;;;;;;;3.50;2.40;;;;;;;17.83;66.00;99306.33;430850;1273;141874;-60
2022/06/13 17:04:33;;;;;;;3.20;2.80;;;;;;;17.96;65.20;99336.89;431349;1273;143006;-60
2022/06/13 17:15:00;;;;;;;3.80;2.00;;;;;;;17.57;63.71;99357.95;430537;1273;142815;-59
2022/06/13 17:25:24;;;;;;;2.20;1.90;;;;;;;17.09;63.31;99360.46;430493;1273;141907;-60
2022/06/13 17:35:46;;;;;;;3.90;1.60;;;;;;;16.48;62.98;99375.94;429712;1273;146637;-60
2022/06/13 17:46:08;;;;;;;4.30;1.30;;;;;;;15.92;63.18;99389.80;432706;1273;143044;-59
2022/06/13 17:56:33;;;;;;;3.70;1.70;;;;;;;15.95;63.09;99401.17;430638;1272;142018;-60
2022/06/13 18:06:58;;;;;;;4.70;1.50;;;;;;;15.79;62.74;99409.65;430386;1272;152306;-60
2022/06/13 18:17:23;;;;;;;1.40;1.20;;;;;;;15.29;63.51;99419.13;429391;1274;145570;-60
2022/06/13 18:27:48;;;;;;;3.70;2.00;;;;;;;14.89;64.27;99431.85;431502;1273;141746;-63
2022/06/13 18:38:10;;;;;;;5.40;1.80;;;;;;;14.50;65.00;99438.91;429394;1273;147430;-60
2022/06/13 18:48:32;;;;;;;7.60;2.20;;;;;;;14.08;65.88;99458.11;429965;1273;142448;-61
2022/06/13 18:58:53;;;;;;;5.70;2.00;;;;;;;13.72;67.16;99473.66;429520;1274;143252;-61
2022/06/13 19:09:18;;;;;;;4.00;2.30;;;;;;;13.35;68.55;99491.48;431747;1272;142925;-59
2022/06/13 19:19:40;;;;;;;4.40;2.80;;;;;;;12.96;70.07;99509.49;430716;1273;142735;-60
2022/06/13 19:30:06;;;;;;;6.70;3.70;;;;;;;12.58;71.27;99525.08;432746;1273;141881;-60
2022/06/13 19:40:33;;;;;;;6.60;3.40;;;;;;;12.23;72.18;99532.71;431307;1273;142832;-61
2022/06/13 19:50:56;;;;;;;11.10;4.60;;;;;;;11.90;73.05;99535.03;430760;1273;141979;-59
2022/06/13 20:01:20;;;;;;;7.40;4.00;;;;;;;11.55;73.86;99544.27;430000;1274;148353;-62
2022/06/13 20:11:45;;;;;;;7.40;6.00;;;;;;;11.30;74.52;99552.23;431605;1273;142878;-59
2022/06/13 20:22:09;;;;;;;8.60;6.60;;;;;;;11.10;75.47;99555.52;438999;1273;142923;-60
2022/06/13 20:32:33;;;;;;;11.20;6.00;;;;;;;10.93;76.22;99562.77;437509;1273;328859;-61
2022/06/13 20:42:58;;;;;;;7.90;4.40;;;;;;;10.77;76.59;99576.35;447124;1273;154596;-61
2022/06/13 20:53:21;;;;;;;6.80;4.80;;;;;;;10.69;77.26;99585.45;446214;1273;145230;-60
2022/06/13 21:03:46;;;;;;;4.90;4.40;;;;;;;10.55;77.50;99583.58;438345;1271;143894;-61
2022/06/13 21:14:08;;;;;;;6.30;4.20;;;;;;;10.36;77.45;99578.47;435088;1273;204503;-62
2022/06/13 21:24:31;;;;;;;6.30;4.60;;;;;;;10.17;77.76;99578.38;446942;1272;143410;-61
2022/06/13 21:34:53;;;;;;;7.80;5.80;;;;;;;10.00;77.81;99579.42;446125;1272;143587;-60
2022/06/13 21:45:15;;;;;;;5.80;4.80;;;;;;;9.85;78.01;99577.02;446472;1273;143143;-61
2022/06/13 21:55:37;;;;;;;9.40;5.40;;;;;;;9.69;78.34;99578.14;446677;1273;143718;-60
2022/06/13 22:06:00;;;;;;;6.90;5.80;;;;;;;9.57;78.72;99577.10;433399;1273;142821;-59
2022/06/13 22:16:21;;;;;;;6.60;4.90;;;;;;;9.39;78.66;99576.61;433226;1273;142778;-59
2022/06/13 22:26:44;;;;;;;5.10;4.40;;;;;;;9.20;79.05;99578.25;428803;1273;144831;-59
2022/06/13 22:37:06;;;;;;;5.00;4.20;;;;;;;9.06;79.70;99584.99;429655;1272;141443;-59
2022/06/13 22:58:08;;;;;;;7.00;4.00;;;;;;;8.83;79.66;99594.66;444523;1273;141419;-61
2022/06/13 23:08:29;;;;;;;7.40;3.30;;;;;;;8.77;80.02;99598.51;436657;1273;144048;-60
2022/06/13 23:18:51;;;;;;;5.40;3.70;;;;;;;8.70;80.08;99602.73;447054;1272;142343;-61
2022/06/13 23:29:13;;;;;;;5.20;3.60;;;;;;;8.61;80.05;99607.75;433531;1273;142801;-59
2022/06/13 23:39:35;;;;;;;6.80;4.00;;;;;;;8.50;80.19;99615.13;429593;1273;145088;-59
2022/06/13 23:49:57;;;;;;;7.20;3.60;;;;;;;8.37;80.55;99618.60;429596;1273;143017;-59
